Home > Products > Valid Products > MTR

000
SAUS44 KLZK 212054
MTRMWT
METAR KMWT 212053Z AUTO 16004KT 10SM OVC075 11/04 A2993 RMK AO2
SLP140 T01110044 56043





000
SAUS44 KLZK 211954
MTRMWT
METAR KMWT 211953Z AUTO 16006KT 10SM FEW042 OVC075 10/03 A2996 RMK
AO2 SLP151 T01000033





000
SAUS44 KLZK 211954
MTRMWT
METAR KMWT 211953Z AUTO 16006KT 10SM FEW042 OVC075 10/03 A2996 RMK
AO2 SLP151 T01000033





000
SAUS44 KLZK 211854
MTRMWT
METAR KMWT 211853Z AUTO VRB06KT 10SM OVC043 10/03 A3001 RMK AO2
SLP166 T01000033





000
SAUS44 KLZK 211754
MTRMWT
METAR KMWT 211753Z AUTO VRB03KT 10SM SCT031 OVC044 09/03 A3006 RMK
AO2 SLP183 T00940033 10094 20028 58026





000
SAUS44 KLZK 211654
MTRMWT
METAR KMWT 211653Z AUTO 00000KT 10SM OVC045 07/03 A3010 RMK AO2
SLP197 T00720033





000
SAUS44 KLZK 211554
MTRMWT
METAR KMWT 211553Z AUTO VRB04KT 9SM OVC045 06/03 A3012 RMK AO2
SLP205 T00560033





000
SAUS44 KLZK 211454
MTRMWT
METAR KMWT 211453Z AUTO 00000KT 6SM BR OVC044 05/03 A3013 RMK AO2
SLP211 T00500033 55005





000
SAUS44 KLZK 211354
MTRMWT
METAR KMWT 211353Z AUTO 00000KT 4SM BR OVC044 04/03 A3013 RMK AO2
SLP211 T00390028





000
SAUS44 KLZK 211354
MTRMWT
METAR KMWT 211353Z AUTO 00000KT 4SM BR OVC044 04/03 A3013 RMK AO2
SLP211 T00390028





000
SAUS44 KLZK 211344
MTRMWT
SPECI KMWT 211343Z AUTO 00000KT 4SM BR FEW003 OVC044 03/02 A3013 RMK
AO2 T00330022





000
SAUS44 KLZK 211344
MTRMWT
SPECI KMWT 211343Z AUTO 00000KT 4SM BR FEW003 OVC044 03/02 A3013 RMK
AO2 T00330022





000
SAUS44 KLZK 211254
MTRMWT
METAR KMWT 211253Z AUTO 00000KT 5SM BR OVC045 03/03 A3015 RMK AO2
SLP216 T00330028





000
SAUS44 KLZK 211254
MTRMWT
METAR KMWT 211253Z AUTO 00000KT 5SM BR OVC045 03/03 A3015 RMK AO2
SLP216 T00330028





000
SAUS44 KLZK 211154
MTRMWT
METAR KMWT 211153Z AUTO 00000KT 3SM BR OVC037 03/02 A3015 RMK AO2
SLP217 T00280022 10061 20011 55002





000
SAUS44 KLZK 211154
MTRMWT
METAR KMWT 211153Z AUTO 00000KT 3SM BR OVC037 03/02 A3015 RMK AO2
SLP217 T00280022 10061 20011 55002





000
SAUS44 KLZK 211054
MTRMWT
METAR KMWT 211053Z AUTO 00000KT 3SM BR OVC035 03/02 A3014 RMK AO2
SLP215 T00280017





000
SAUS44 KLZK 211054
MTRMWT
METAR KMWT 211053Z AUTO 00000KT 3SM BR OVC035 03/02 A3014 RMK AO2
SLP215 T00280017





000
SAUS44 KLZK 211013
MTRMWT
SPECI KMWT 211011Z AUTO 00000KT 3SM BR OVC037 02/01 A3015 RMK AO2
T00170011





000
SAUS44 KLZK 211013
MTRMWT
SPECI KMWT 211011Z AUTO 00000KT 3SM BR OVC037 02/01 A3015 RMK AO2
T00170011





000
SAUS44 KLZK 210955
MTRMWT
METAR KMWT 210953Z AUTO 00000KT 2 1/2SM BR OVC041 02/01 A3016 RMK
AO2 SLP219 T00170006





000
SAUS44 KLZK 210955
MTRMWT
METAR KMWT 210953Z AUTO 00000KT 2 1/2SM BR OVC041 02/01 A3016 RMK
AO2 SLP219 T00170006





000
SAUS44 KLZK 210948
MTRMWT
SPECI KMWT 210946Z AUTO 00000KT 2SM BR OVC041 01/01 A3016 RMK AO2
T00110006





000
SAUS44 KLZK 210948
MTRMWT
SPECI KMWT 210946Z AUTO 00000KT 2SM BR OVC041 01/01 A3016 RMK AO2
T00110006





000
SAUS44 KLZK 210901
MTRMWT
SPECI KMWT 210900Z AUTO 00000KT 1 1/4SM BR CLR 02/02 A3015 RMK AO2
VIS 3/4V2 1/2 T00220017





000
SAUS44 KLZK 210854
MTRMWT
METAR KMWT 210853Z AUTO 00000KT 2SM BR CLR 03/02 A3016 RMK AO2
SLP218 T00280017 56010





000
SAUS44 KLZK 210754
MTRMWT
METAR KMWT 210753Z AUTO 00000KT 5SM BR CLR 03/02 A3017 RMK AO2
SLP221 T00330022





000
SAUS44 KLZK 210654
MTRMWT
METAR KMWT 210653Z AUTO 00000KT 9SM CLR 04/03 A3017 RMK AO2 SLP223
T00440033





000
SAUS44 KLZK 210554
MTRMWT
METAR KMWT 210553Z AUTO 00000KT 8SM OVC034 06/04 A3019 RMK AO2
SLP227 T00560044 10078 20056 400940050 58001





000
SAUS44 KLZK 210454
MTRMWT
METAR KMWT 210453Z AUTO 14004KT 10SM OVC033 07/05 A3019 RMK AO2
SLP228 T00720050





000
SAUS44 KLZK 210454
MTRMWT
METAR KMWT 210453Z AUTO 14004KT 10SM OVC033 07/05 A3019 RMK AO2
SLP228 T00720050





000
SAUS44 KLZK 210354
MTRMWT
METAR KMWT 210353Z AUTO 00000KT 9SM FEW016 OVC033 07/06 A3019 RMK
AO2 SLP228 T00720061





000
SAUS44 KLZK 210354
MTRMWT
METAR KMWT 210353Z AUTO 00000KT 9SM FEW016 OVC033 07/06 A3019 RMK
AO2 SLP228 T00720061





000
SAUS44 KLZK 210254
MTRMWT
METAR KMWT 210253Z AUTO 00000KT 9SM OVC034 07/06 A3019 RMK AO2
SLP229 T00720061 50002





000
SAUS44 KLZK 210154
MTRMWT
METAR KMWT 210153Z AUTO 00000KT 10SM OVC035 07/06 A3019 RMK AO2
SLP229 T00720061





000
SAUS44 KLZK 210054
MTRMWT
METAR KMWT 210053Z AUTO 00000KT 10SM OVC035 08/06 A3018 RMK AO2
SLP228 T00780061





000
SAUS44 KLZK 202354
MTRMWT
METAR KMWT 202353Z AUTO 00000KT 10SM OVC035 08/06 A3018 RMK AO2
SLP226 T00780061 10094 20078 51005





000
SAUS44 KLZK 202254
MTRMWT
METAR KMWT 202253Z AUTO 00000KT 10SM OVC036 08/06 A3018 RMK AO2
SLP226 T00830056





000
SAUS44 KLZK 202154
MTRMWT
METAR KMWT 202153Z AUTO 00000KT 10SM FEW016 OVC037 09/05 A3017 RMK
AO2 SLP222 T00890050





000
SAUS44 KLZK 202141
MTRMWT
SPECI KMWT 202140Z AUTO 00000KT 10SM SCT016 OVC037 09/05 A3017 RMK
AO2 T00940050





000
SAUS44 KLZK 202054
MTRMWT
METAR KMWT 202053Z AUTO 00000KT 10SM OVC017 09/05 A3017 RMK AO2
SLP221 T00890050 56015





000
SAUS44 KLZK 201954
MTRMWT
METAR KMWT 201953Z AUTO 00000KT 10SM OVC015 08/05 A3017 RMK AO2
SLP221 T00830050





000
SAUS44 KLZK 201854
MTRMWT
METAR KMWT 201853Z AUTO 00000KT 10SM OVC013 08/04 A3018 RMK AO2
SLP226 T00830044





000
SAUS44 KLZK 201806
MTRMWT
SPECI KMWT 201805Z AUTO 00000KT 10SM OVC014 08/04 A3021 RMK AO2
T00780044





000
SAUS44 KLZK 201754
MTRMWT
METAR KMWT 201753Z AUTO 00000KT 10SM OVC015 08/04 A3021 RMK AO2
SLP236 T00830044 10083 20050 58004





000
SAUS44 KLZK 201654
MTRMWT
METAR KMWT 201653Z AUTO 00000KT 10SM FEW010 OVC015 07/04 A3023 RMK
AO2 SLP244 T00720039





000
SAUS44 KLZK 201623
MTRMWT
SPECI KMWT 201621Z AUTO 00000KT 10SM FEW009 OVC015 07/04 A3024 RMK
AO2 T00670039





000
SAUS44 KLZK 201554
MTRMWT
METAR KMWT 201553Z AUTO 00000KT 10SM OVC009 07/04 A3024 RMK AO2
SLP246 T00670039





000
SAUS44 KLZK 201520
MTRMWT
SPECI KMWT 201518Z AUTO 00000KT 9SM BKN007 BKN016 OVC041 06/04 A3023
RMK AO2 T00610039





000
SAUS44 KLZK 201504
MTRMWT
SPECI KMWT 201503Z AUTO 00000KT 8SM FEW007 OVC041 06/04 A3023 RMK
AO2 T00610039





000
SAUS44 KLZK 201454
MTRMWT
METAR KMWT 201453Z AUTO 00000KT 9SM OVC041 06/04 A3022 RMK AO2
SLP242 T00560039 51008





000
SAUS44 KLZK 201430
MTRMWT
SPECI KMWT 201428Z AUTO 00000KT 8SM FEW016 OVC042 06/04 A3022 RMK
AO2 T00560039





000
SAUS44 KLZK 201355
MTRMWT
METAR KMWT 201353Z AUTO 00000KT 5SM BR SCT009 BKN018 OVC041 05/04
A3022 RMK AO2 SLP241 T00500039





000
SAUS44 KLZK 201336
MTRMWT
SPECI KMWT 201335Z AUTO 00000KT 6SM BR SCT008 OVC018 05/04 A3022 RMK
AO2 T00500039





000
SAUS44 KLZK 201255
MTRMWT
METAR KMWT 201253Z AUTO 00000KT 6SM BR OVC020 05/04 A3022 RMK AO2
SLP240 T00500039





000
SAUS44 KLZK 201237
MTRMWT
SPECI KMWT 201235Z AUTO 00000KT 7SM SCT011 OVC020 05/04 A3021 RMK
AO2 T00500039





000
SAUS44 KLZK 201216
MTRMWT
SPECI KMWT 201214Z AUTO 00000KT 7SM OVC010 05/04 A3021 RMK AO2 CIG
008V011 T00500039





000
SAUS44 KLZK 201154
MTRMWT
METAR KMWT 201153Z AUTO 00000KT 6SM BR OVC008 05/04 A3020 RMK AO2
SLP234 70007 T00500039 10056 20050 53005





000
SAUS44 KLZK 201054
MTRMWT
METAR KMWT 201053Z AUTO 00000KT 7SM OVC008 05/04 A3019 RMK AO2
SLP231 T00500039





000
SAUS44 KLZK 201044
MTRMWT
SPECI KMWT 201043Z AUTO 00000KT 6SM BR OVC008 05/04 A3019 RMK AO2
T00500039





000
SAUS44 KLZK 200954
MTRMWT
METAR KMWT 200953Z AUTO 00000KT 7SM OVC011 06/04 A3018 RMK AO2
SLP227 T00560039





000
SAUS44 KLZK 200854
MTRMWT
METAR KMWT 200853Z AUTO 14003KT 7SM OVC006 06/04 A3019 RMK AO2
SLP228 T00560039 55003





000
SAUS44 KLZK 200754
MTRMWT
METAR KMWT 200753Z AUTO 00000KT 6SM BR OVC007 06/04 A3018 RMK AO2
SLP226 T00560044





000
SAUS44 KLZK 200754
MTRMWT
METAR KMWT 200753Z AUTO 00000KT 6SM BR OVC007 06/04 A3018 RMK AO2
SLP226 T00560044





000
SAUS44 KLZK 200654
MTRMWT
METAR KMWT 200653Z AUTO 00000KT 5SM BR OVC007 06/04 A3018 RMK AO2
SLP228 T00560044





000
SAUS44 KLZK 200554
MTRMWT
METAR KMWT 200553Z AUTO 00000KT 4SM BR OVC009 06/05 A3019 RMK AO2
SLP232 T00560050 10061 20056 400610044 53003





000
SAUS44 KLZK 200544
MTRMWT
SPECI KMWT 200543Z AUTO 00000KT 4SM BR OVC009 06/04 A3019 RMK AO2
CIG 005V012 T00560044





000
SAUS44 KLZK 200531
MTRMWT
SPECI KMWT 200530Z AUTO 00000KT 5SM BR SCT004 OVC011 06/04 A3019 RMK
AO2 T00560044





000
SAUS44 KLZK 200454
MTRMWT
METAR KMWT 200453Z AUTO 00000KT 5SM BR OVC004 06/04 A3019 RMK AO2
SLP230 T00560044





000
SAUS44 KLZK 200354
MTRMWT
METAR KMWT 200353Z AUTO 00000KT 5SM BR OVC004 06/04 A3019 RMK AO2
SLP230 T00560044





000
SAUS44 KLZK 200354
MTRMWT
METAR KMWT 200353Z AUTO 00000KT 5SM BR OVC004 06/04 A3019 RMK AO2
SLP230 T00560044





000
SAUS44 KLZK 200256
MTRMWT
METAR KMWT 200253Z AUTO 00000KT 5SM BR OVC004 06/04 A3018 RMK AO2
SLP229 T00560044 51004





000
SAUS44 KLZK 200154
MTRMWT
METAR KMWT 200153Z AUTO 00000KT 5SM BR OVC004 06/04 A3019 RMK AO2
SLP229 T00560044





000
SAUS44 KLZK 200154
MTRMWT
METAR KMWT 200153Z AUTO 00000KT 5SM BR OVC004 06/04 A3019 RMK AO2
SLP229 T00560044





000
SAUS44 KLZK 200106
MTRMWT
SPECI KMWT 200105Z AUTO 00000KT 6SM BR OVC004 06/04 A3018 RMK AO2
T00560044





000
SAUS44 KLZK 200054
MTRMWT
METAR KMWT 200053Z AUTO 00000KT 7SM OVC005 06/04 A3018 RMK AO2
SLP227 T00560044





000
SAUS44 KLZK 192354
MTRMWT
METAR KMWT 192353Z AUTO 00000KT 8SM OVC006 06/05 A3017 RMK AO2
SLP224 T00610050 10061 20056 51007





000
SAUS44 KLZK 192254
MTRMWT
METAR KMWT 192253Z AUTO 00000KT 10SM OVC009 06/04 A3017 RMK AO2 CIG
007V011 SLP222 T00610044





000
SAUS44 KLZK 192154
MTRMWT
METAR KMWT 192153Z AUTO 00000KT 10SM OVC008 06/04 A3016 RMK AO2
SLP219 T00610044





000
SAUS44 KLZK 192054
MTRMWT
METAR KMWT 192053Z AUTO 09003KT 10SM OVC008 06/04 A3015 RMK AO2
SLP217 T00610044 55010





000
SAUS44 KLZK 191954
MTRMWT
METAR KMWT 191953Z AUTO 00000KT 10SM OVC006 06/04 A3014 RMK AO2 CIG
005V009 SLP212 T00610044





000
SAUS44 KLZK 191954
MTRMWT
METAR KMWT 191953Z AUTO 00000KT 10SM OVC006 06/04 A3014 RMK AO2 CIG
005V009 SLP212 T00610044





000
SAUS44 KLZK 191854
MTRMWT
METAR KMWT 191853Z AUTO 08003KT 10SM BKN008 OVC033 06/04 A3016 RMK
AO2 CIG 005V012 SLP219 T00560044





000
SAUS44 KLZK 191854
MTRMWT
METAR KMWT 191853Z AUTO 08003KT 10SM BKN008 OVC033 06/04 A3016 RMK
AO2 CIG 005V012 SLP219 T00560044





000
SAUS44 KLZK 191813
MTRMWT
SPECI KMWT 191812Z AUTO VRB03KT 10SM SCT006 OVC011 06/04 A3018 RMK
AO2 T00560044





000
SAUS44 KLZK 191754
MTRMWT
METAR KMWT 191753Z AUTO 00000KT 10SM OVC004 06/04 A3018 RMK AO2
RAE29 CIG 003V008 SLP227 P0001 60007 T00560044 10056 20044 58010





000
SAUS44 KLZK 191654
MTRMWT
METAR KMWT 191653Z AUTO 00000KT 7SM -RA OVC004 05/04 A3024 RMK AO2
CIG 003V008 SLP247 P0005 T00500039





000
SAUS44 KLZK 191618
MTRMWT
SPECI KMWT 191617Z AUTO 00000KT 3SM -RA BR OVC005 05/04 A3024 RMK
AO2 CIG 003V007 P0002 T00500039





000
SAUS44 KLZK 191554
MTRMWT
METAR KMWT 191553Z AUTO 00000KT 5SM -RA BR OVC002 05/04 A3023 RMK
AO2 RAB20 SLP243 P0001 T00500039





000
SAUS44 KLZK 191541
MTRMWT
SPECI KMWT 191540Z AUTO 00000KT 2 1/2SM -RA BR OVC002 05/04 A3022
RMK AO2 RAB20 P0000 T00500039





000
SAUS44 KLZK 191454
MTRMWT
METAR KMWT 191453Z AUTO 00000KT 1 1/4SM BR OVC003 05/04 A3021 RMK
AO2 SLP238 T00500039 51019





000
SAUS44 KLZK 191444
MTRMWT
SPECI KMWT 191443Z AUTO 00000KT 1 3/4SM BR OVC003 05/04 A3020 RMK
AO2 T00500039





000
SAUS44 KLZK 191354
MTRMWT
METAR KMWT 191353Z AUTO 00000KT 6SM BR OVC003 05/04 A3021 RMK AO2
SLP237 T00500039





000
SAUS44 KLZK 191254
MTRMWT
METAR KMWT 191253Z AUTO 00000KT 10SM OVC004 04/03 A3020 RMK AO2
SLP234 T00440033





000
SAUS44 KLZK 191242
MTRMWT
SPECI KMWT 191241Z AUTO 00000KT 10SM OVC004 04/03 A3019 RMK AO2
T00440033





000
SAUS44 KLZK 191223
MTRMWT
SPECI KMWT 191222Z AUTO 00000KT 10SM BKN005 OVC008 04/03 A3017 RMK
AO2 T00440033





000
SAUS44 KLZK 191154
MTRMWT
METAR KMWT 191153Z AUTO VRB03KT 6SM BR OVC002 04/03 A3016 RMK AO2
SLP219 T00440033 10050 20044 56003





000
SAUS44 KLZK 191054
MTRMWT
METAR KMWT 191053Z AUTO 00000KT 3SM BR OVC002 04/03 A3016 RMK AO2
SLP219 T00440033





000
SAUS44 KLZK 190954
MTRMWT
METAR KMWT 190953Z AUTO 00000KT 4SM BR OVC002 04/03 A3016 RMK AO2
SLP220 T00440033





000
SAUS44 KLZK 190954
MTRMWT
METAR KMWT 190953Z AUTO 00000KT 4SM BR OVC002 04/03 A3016 RMK AO2
SLP220 T00440033





000
SAUS44 KLZK 190857 COR
MTRMWT
METAR KMWT 190853Z AUTO 00000KT 4SM BR OVC002 04/04 A3016 RMK AO2
SLP222 T00440039 55005





000
SAUS44 KLZK 190754
MTRMWT
METAR KMWT 190753Z AUTO 00000KT 7SM OVC003 04/04 A3015 RMK AO2
SLP218 T00440039





000
SAUS44 KLZK 190654
MTRMWT
METAR KMWT 190653Z AUTO 00000KT 9SM OVC003 04/04 A3017 RMK AO2
SLP224 T00440039





000
SAUS44 KLZK 190554
MTRMWT
METAR KMWT 190553Z AUTO 00000KT 10SM OVC004 05/04 A3018 RMK AO2
SLP227 T00500039 10067 20050 400670028 58001





000
SAUS44 KLZK 190454
MTRMWT
METAR KMWT 190453Z AUTO 00000KT 8SM OVC003 06/04 A3020 RMK AO2
SLP233 T00560044





000
SAUS44 KLZK 190401
MTRMWT
SPECI KMWT 190401Z AUTO 00000KT 3SM BR OVC002 06/05 A3019 RMK AO2
T00560050





000
SAUS44 KLZK 190401
MTRMWT
SPECI KMWT 190401Z AUTO 00000KT 3SM BR OVC002 06/05 A3019 RMK AO2
T00560050





000
SAUS44 KLZK 190354
MTRMWT
METAR KMWT 190353Z AUTO 00000KT 1 3/4SM BR OVC002 06/05 A3019 RMK
AO2 SLP229 T00560050





000
SAUS44 KLZK 190354
MTRMWT
METAR KMWT 190353Z AUTO 00000KT 1 3/4SM BR OVC002 06/05 A3019 RMK
AO2 SLP229 T00560050





000
SAUS44 KLZK 190345
MTRMWT
SPECI KMWT 190344Z AUTO 00000KT 2 1/2SM BR OVC002 06/05 A3018 RMK
AO2 T00610050





000
SAUS44 KLZK 190345
MTRMWT
SPECI KMWT 190344Z AUTO 00000KT 2 1/2SM BR OVC002 06/05 A3018 RMK
AO2 T00610050





000
SAUS44 KLZK 190309
MTRMWT
SPECI KMWT 190308Z AUTO 00000KT 1 1/2SM BR OVC002 06/05 A3018 RMK
AO2 T00610050





000
SAUS44 KLZK 190254
MTRMWT
METAR KMWT 190253Z AUTO 00000KT 2 1/2SM BR OVC002 06/05 A3018 RMK
AO2 SLP228 T00610050 51006





000
SAUS44 KLZK 190249
MTRMWT
SPECI KMWT 190248Z AUTO 03003KT 2SM BR OVC002 06/05 A3018 RMK AO2





000
SAUS44 KLZK 190154
MTRMWT
METAR KMWT 190153Z AUTO 00000KT 9SM OVC004 06/05 A3018 RMK AO2
SLP226 T00610050





000
SAUS44 KLZK 190154
MTRMWT
METAR KMWT 190153Z AUTO 00000KT 9SM OVC004 06/05 A3018 RMK AO2
SLP226 T00610050





000
SAUS44 KLZK 190054
MTRMWT
METAR KMWT 190053Z AUTO 00000KT 10SM OVC007 06/05 A3016 RMK AO2
SLP222 T00610050





000
SAUS44 KLZK 182354
MTRMWT
METAR KMWT 182353Z AUTO 00000KT 10SM OVC007 06/05 A3015 RMK AO2 CIG
005V010 SLP216 T00610050 10067 20050 53008





000
SAUS44 KLZK 182331
MTRMWT
SPECI KMWT 182330Z AUTO 00000KT 10SM OVC005 06/05 A3013 RMK AO2
T00610050





000
SAUS44 KLZK 182254
MTRMWT
METAR KMWT 182253Z AUTO 00000KT 10SM OVC004 06/05 A3013 RMK AO2
SLP211 T00610050





000
SAUS44 KLZK 182249
MTRMWT
SPECI KMWT 182248Z AUTO VRB03KT 10SM OVC004 06/05 A3013 RMK AO2





000
SAUS44 KLZK 182154
MTRMWT
METAR KMWT 182153Z AUTO 00000KT 10SM OVC005 07/05 A3012 RMK AO2
SLP208 T00670050





    US Dept of Commerce
    National Oceanic and Atmospheric Administration
    National Weather Service
    1325 East West Highway
    Silver Spring, MD 20910
    Page Author: NWS Internet Services Team
Disclaimer
Information Quality
Credits
Glossary
Privacy Policy
Freedom of Information Act (FOIA)
About Us
Career Opportunities